createdAt,value
2023-03-14T00:01:09.630Z,90.21
2023-03-14T00:03:36.041Z,89.99
2023-03-14T00:06:04.035Z,89.34
2023-03-14T00:08:30.488Z,90.06
2023-03-14T00:10:58.683Z,89.24
2023-03-14T00:13:25.688Z,88.33
2023-03-14T00:15:52.119Z,89.13
2023-03-14T00:18:20.829Z,88.05
2023-03-14T00:20:47.298Z,86.51
2023-03-14T00:23:13.712Z,85.96
2023-03-14T00:25:40.197Z,84.53
2023-03-14T00:28:06.607Z,84.10
2023-03-14T00:30:33.012Z,83.63
2023-03-14T00:32:59.448Z,83.46
2023-03-14T00:35:26.054Z,82.23
2023-03-14T00:37:52.450Z,81.85
2023-03-14T00:40:18.950Z,81.60
2023-03-14T00:42:45.390Z,80.86
2023-03-14T00:45:11.826Z,81.15
2023-03-14T00:47:38.647Z,82.23
2023-03-14T00:50:05.579Z,82.14
2023-03-14T00:52:32.050Z,81.68
2023-03-14T00:54:58.688Z,81.92
2023-03-14T00:57:25.179Z,81.85
2023-03-14T00:59:52.481Z,81.55
2023-03-14T01:02:18.972Z,80.92
2023-03-14T01:04:45.517Z,81.00
2023-03-14T01:07:11.972Z,82.06
2023-03-14T01:09:38.426Z,81.99
2023-03-14T01:12:05.186Z,82.76
2023-03-14T01:14:31.932Z,83.47
2023-03-14T01:17:01.707Z,84.86
2023-03-14T01:19:29.306Z,86.13
2023-03-14T01:21:55.795Z,85.41
2023-03-14T01:24:22.258Z,87.86
2023-03-14T01:26:48.699Z,89.37
2023-03-14T01:29:15.148Z,90.29
2023-03-14T01:31:41.598Z,91.96
2023-03-14T01:34:08.093Z,92.36
2023-03-14T01:36:34.581Z,92.54
2023-03-14T01:39:00.995Z,93.72
2023-03-14T01:41:28.132Z,94.61
2023-03-14T01:43:54.647Z,93.75
2023-03-14T01:46:27.139Z,94.89
2023-03-14T01:48:59.538Z,95.25
2023-03-14T01:51:41.776Z,95.84
2023-03-14T01:54:28.985Z,95.34
2023-03-14T01:57:05.834Z,95.45
2023-03-14T01:59:33.757Z,95.47
2023-03-14T02:02:00.387Z,96.03
2023-03-14T02:04:31.202Z,95.64
2023-03-14T02:07:05.121Z,95.53
2023-03-14T02:09:31.702Z,94.51
2023-03-14T02:11:59.291Z,94.54
2023-03-14T02:14:31.594Z,94.68
2023-03-14T02:16:58.975Z,94.78
2023-03-14T02:19:36.878Z,93.94
2023-03-14T02:22:14.823Z,94.30
2023-03-14T02:25:08.739Z,94.01
2023-03-14T02:27:35.950Z,94.28
2023-03-14T02:30:10.647Z,93.93
2023-03-14T02:32:40.356Z,93.99
2023-03-14T02:35:12.328Z,93.88
2023-03-14T02:37:51.845Z,93.01
2023-03-14T02:40:18.338Z,93.24
2023-03-14T02:42:44.802Z,93.75
2023-03-14T02:45:11.133Z,94.07
2023-03-14T02:47:43.156Z,94.17
2023-03-14T02:50:14.027Z,93.52
2023-03-14T02:52:40.477Z,94.35
2023-03-14T02:55:07.471Z,94.03
2023-03-14T02:57:33.864Z,93.96
2023-03-14T03:00:01.109Z,95.06
2023-03-14T03:02:30.669Z,94.54
2023-03-14T03:04:57.070Z,95.13
2023-03-14T03:07:23.504Z,95.16
2023-03-14T03:09:49.887Z,94.96
2023-03-14T03:12:16.311Z,95.41
2023-03-14T03:14:42.682Z,95.03
2023-03-14T03:17:09.210Z,95.05
2023-03-14T03:19:36.225Z,95.08
2023-03-14T03:22:02.658Z,94.69
2023-03-14T03:24:29.076Z,94.98
2023-03-14T03:26:55.853Z,94.79
2023-03-14T03:29:22.592Z,94.22
2023-03-14T03:31:48.973Z,94.25
2023-03-14T03:34:15.866Z,94.67
2023-03-14T03:36:43.243Z,94.20
2023-03-14T03:39:09.632Z,93.94
2023-03-14T03:41:36.085Z,93.07
2023-03-14T03:44:02.471Z,93.18
2023-03-14T03:46:28.868Z,93.88
2023-03-14T03:49:00.022Z,92.97
2023-03-14T03:51:26.802Z,93.25
2023-03-14T03:53:53.373Z,92.95
2023-03-14T03:56:19.797Z,92.24
2023-03-14T03:58:46.165Z,93.05
2023-03-14T04:01:12.677Z,92.68
2023-03-14T04:03:39.977Z,92.57
2023-03-14T04:06:12.947Z,91.97
2023-03-14T04:08:41.466Z,92.10
2023-03-14T04:11:08.236Z,91.46
2023-03-14T04:13:34.696Z,91.12
2023-03-14T04:16:01.203Z,90.89
2023-03-14T04:18:28.449Z,90.74
2023-03-14T04:20:56.750Z,90.43
2023-03-14T04:23:25.161Z,91.13
2023-03-14T04:25:53.042Z,90.06
2023-03-14T04:28:19.709Z,90.66
2023-03-14T04:30:46.168Z,90.15
2023-03-14T04:33:13.675Z,89.69
2023-03-14T04:35:40.174Z,90.24
2023-03-14T04:38:06.843Z,89.49
2023-03-14T04:40:33.313Z,90.21
2023-03-14T04:42:59.703Z,89.94
2023-03-14T04:45:26.069Z,89.86
2023-03-14T04:47:52.449Z,89.89
2023-03-14T04:50:19.116Z,89.52
2023-03-14T04:52:45.533Z,90.25
2023-03-14T04:55:11.994Z,89.77
2023-03-14T04:57:38.627Z,90.31
2023-03-14T05:00:08.856Z,90.30
2023-03-14T05:02:36.109Z,89.80
2023-03-14T05:05:02.764Z,89.62
2023-03-14T05:07:29.201Z,89.81
2023-03-14T05:09:55.627Z,90.78
2023-03-14T05:12:22.122Z,91.65
2023-03-14T05:14:48.527Z,92.72
2023-03-14T05:17:15.511Z,92.98
2023-03-14T05:19:42.575Z,93.81
2023-03-14T05:22:09.019Z,94.89
2023-03-14T05:24:35.514Z,95.44
2023-03-14T05:27:01.936Z,95.34
2023-03-14T05:29:28.428Z,96.13
2023-03-14T05:31:54.871Z,96.73
2023-03-14T05:34:21.882Z,97.21
2023-03-14T05:36:48.416Z,97.88
2023-03-14T05:39:14.793Z,97.78
2023-03-14T05:41:41.246Z,97.65
2023-03-14T05:44:07.631Z,97.94
2023-03-14T05:46:34.076Z,98.94
2023-03-14T05:49:01.073Z,98.59
2023-03-14T05:51:27.824Z,98.60
2023-03-14T05:53:54.208Z,98.81
2023-03-14T05:56:20.567Z,99.63
2023-03-14T05:58:47.019Z,99.78
2023-03-14T06:01:13.511Z,100.00
2023-03-14T06:03:40.088Z,100.00
2023-03-14T06:06:06.937Z,100.00
2023-03-14T06:08:33.392Z,100.00
2023-03-14T06:10:59.891Z,100.00
2023-03-14T06:13:26.339Z,100.00
2023-03-14T06:15:52.871Z,100.00
2023-03-14T06:18:19.360Z,100.00
2023-03-14T06:20:45.973Z,100.00
2023-03-14T06:23:12.581Z,100.00
2023-03-14T06:25:39.270Z,100.00
2023-03-14T06:28:05.689Z,100.00
2023-03-14T06:30:32.220Z,100.00
2023-03-14T06:32:58.741Z,100.00
2023-03-14T06:35:25.330Z,100.00
2023-03-14T06:37:52.208Z,100.00
2023-03-14T06:40:19.272Z,100.00
2023-03-14T06:42:46.340Z,100.00
2023-03-14T06:45:12.946Z,100.00
2023-03-14T06:47:39.506Z,100.00
2023-03-14T06:50:11.087Z,100.00
2023-03-14T06:52:38.183Z,100.00
2023-03-14T06:55:04.938Z,98.11
2023-03-14T06:57:31.406Z,98.45
2023-03-14T06:59:57.853Z,97.52
2023-03-14T07:02:35.965Z,98.27
2023-03-14T07:05:06.939Z,97.78
2023-03-14T07:07:33.672Z,99.15
2023-03-14T07:10:00.111Z,98.37
2023-03-14T07:12:26.541Z,99.36
2023-03-14T07:14:53.014Z,99.54
2023-03-14T07:17:19.485Z,99.56
2023-03-14T07:19:45.928Z,99.36
2023-03-14T07:22:12.359Z,99.68
2023-03-14T07:24:38.786Z,99.79
2023-03-14T07:27:05.253Z,99.45
2023-03-14T07:29:31.683Z,99.75
2023-03-14T07:31:58.426Z,99.50
2023-03-14T07:34:24.865Z,99.62
2023-03-14T07:36:51.358Z,98.57
2023-03-14T07:39:17.788Z,99.58
2023-03-14T07:41:44.190Z,99.18
2023-03-14T07:44:10.637Z,98.93
2023-03-14T07:46:37.069Z,99.13
2023-03-14T07:49:03.542Z,99.67
2023-03-14T07:51:29.984Z,98.45
2023-03-14T07:53:56.414Z,99.12
2023-03-14T07:56:22.950Z,98.63
2023-03-14T07:58:49.442Z,98.43
2023-03-14T08:01:16.004Z,98.86
2023-03-14T08:03:42.510Z,99.31
2023-03-14T08:06:09.023Z,95.44
2023-03-14T08:08:35.877Z,95.68
2023-03-14T08:11:07.191Z,96.45
2023-03-14T08:13:33.676Z,96.37
2023-03-14T08:16:00.163Z,97.16
2023-03-14T08:18:26.703Z,96.15
2023-03-14T08:20:53.123Z,96.15
2023-03-14T08:23:19.697Z,96.24
2023-03-14T08:25:46.327Z,95.58
2023-03-14T08:28:13.904Z,95.13
2023-03-14T08:30:40.354Z,94.94
2023-03-14T08:33:06.890Z,94.89
2023-03-14T08:35:33.408Z,95.13
2023-03-14T08:37:59.809Z,95.54
2023-03-14T08:40:26.208Z,96.59
2023-03-14T08:42:52.619Z,96.08
2023-03-14T08:45:19.229Z,96.21
2023-03-14T08:47:46.354Z,95.54
2023-03-14T08:50:16.248Z,94.54
2023-03-14T08:52:43.238Z,94.41
2023-03-14T08:55:10.163Z,94.28
2023-03-14T08:57:37.316Z,94.30
2023-03-14T09:00:14.313Z,92.93
2023-03-14T09:02:41.125Z,91.00
2023-03-14T09:05:08.541Z,91.69
2023-03-14T09:07:35.039Z,92.17
2023-03-14T09:10:01.485Z,91.46
2023-03-14T09:12:28.016Z,91.35
2023-03-14T09:14:54.677Z,91.52
2023-03-14T09:17:21.100Z,90.37
2023-03-14T09:19:47.481Z,89.89
2023-03-14T09:22:13.912Z,88.60
2023-03-14T09:24:41.688Z,88.08
2023-03-14T09:27:08.769Z,87.31
2023-03-14T09:29:35.579Z,88.41
2023-03-14T09:32:02.058Z,88.67
2023-03-14T09:34:28.506Z,87.37
2023-03-14T09:36:55.209Z,87.64
2023-03-14T09:39:21.578Z,86.92
2023-03-14T09:41:51.605Z,86.07
2023-03-14T09:44:26.415Z,85.85
2023-03-14T09:46:55.501Z,85.34
2023-03-14T09:49:29.830Z,85.33
2023-03-14T09:51:58.871Z,83.51
2023-03-14T09:54:53.026Z,84.53
2023-03-14T09:57:22.728Z,84.19
2023-03-14T09:59:51.219Z,84.57
2023-03-14T10:02:23.295Z,84.16
2023-03-14T10:04:52.618Z,83.49
2023-03-14T10:07:26.346Z,82.74
2023-03-14T10:09:52.829Z,83.15
2023-03-14T10:12:20.227Z,82.46
2023-03-14T10:14:54.630Z,81.74
2023-03-14T10:17:21.562Z,82.77
2023-03-14T10:19:58.129Z,84.41
2023-03-14T10:22:29.809Z,85.00
2023-03-14T10:25:00.234Z,85.83
2023-03-14T10:30:05.897Z,87.17
2023-03-14T10:32:38.795Z,87.38
2023-03-14T10:35:10.110Z,86.03
2023-03-14T10:37:36.819Z,86.08
2023-03-14T10:40:06.708Z,85.48
2023-03-14T10:42:39.771Z,83.96
2023-03-14T10:45:23.194Z,83.15
2023-03-14T10:47:51.378Z,83.58
2023-03-14T10:50:32.191Z,81.71
2023-03-14T10:53:06.299Z,82.64
2023-03-14T10:55:43.934Z,82.27
2023-03-14T10:58:32.629Z,81.09
2023-03-14T11:01:18.121Z,81.82
2023-03-14T11:03:53.336Z,82.16
2023-03-14T11:06:32.680Z,82.21
2023-03-14T11:09:21.995Z,81.04
2023-03-14T11:11:49.150Z,80.00
2023-03-14T11:14:42.304Z,80.60
2023-03-14T11:17:17.036Z,78.30
2023-03-14T11:19:52.315Z,76.25
2023-03-14T11:22:42.062Z,76.24
2023-03-14T11:25:22.251Z,72.13
2023-03-14T11:28:27.283Z,71.60
2023-03-14T11:30:56.381Z,67.16
2023-03-14T11:33:28.352Z,67.63
2023-03-14T11:36:10.137Z,68.17
2023-03-14T11:38:51.586Z,66.77
2023-03-14T11:41:26.288Z,65.29
2023-03-14T11:43:58.080Z,64.26
2023-03-14T11:46:28.042Z,62.33
2023-03-14T11:49:09.802Z,62.74
2023-03-14T11:51:46.960Z,64.77
2023-03-14T11:54:47.706Z,61.47
2023-03-14T11:57:18.382Z,58.73
2023-03-14T11:59:57.415Z,60.61
2023-03-14T12:02:32.694Z,57.74
2023-03-14T12:05:36.527Z,58.88
2023-03-14T12:08:12.050Z,56.86
2023-03-14T12:10:51.028Z,56.96
2023-03-14T12:13:18.732Z,56.71
2023-03-14T12:15:59.913Z,56.16
2023-03-14T12:18:35.712Z,57.37
2023-03-14T12:21:05.612Z,56.85
2023-03-14T12:23:44.430Z,58.92
2023-03-14T12:26:13.567Z,54.26
2023-03-14T12:28:44.580Z,54.35
2023-03-14T12:31:30.094Z,54.37
2023-03-14T12:34:05.120Z,54.02
2023-03-14T12:36:50.414Z,56.16
2023-03-14T12:39:38.410Z,55.83
2023-03-14T12:42:43.937Z,56.04
2023-03-14T12:45:25.271Z,54.39
2023-03-14T12:48:11.798Z,54.89
2023-03-14T12:50:45.921Z,53.18
2023-03-14T12:53:31.574Z,53.74
2023-03-14T12:56:22.414Z,54.68
2023-03-14T12:59:05.874Z,52.78
2023-03-14T13:01:34.792Z,51.14
2023-03-14T13:04:10.172Z,52.11
2023-03-14T13:07:00.571Z,54.53
2023-03-14T13:09:26.965Z,52.09
2023-03-14T13:12:01.307Z,49.43
2023-03-14T13:14:30.118Z,52.06
2023-03-14T13:17:10.447Z,50.80
2023-03-14T13:19:53.410Z,50.63
2023-03-14T13:22:32.864Z,52.31
2023-03-14T13:25:08.367Z,51.77
2023-03-14T13:27:36.168Z,48.77
2023-03-14T13:30:15.807Z,49.45
2023-03-14T13:32:45.320Z,48.69
2023-03-14T13:35:29.495Z,49.20
2023-03-14T13:38:10.749Z,46.18
2023-03-14T13:40:38.745Z,49.59
2023-03-14T13:43:14.299Z,51.60
2023-03-14T13:45:51.566Z,50.62
2023-03-14T13:48:19.337Z,47.21
2023-03-14T13:50:55.177Z,48.68
2023-03-14T13:53:22.089Z,49.23
2023-03-14T13:55:48.642Z,49.30
2023-03-14T13:58:37.810Z,49.40
2023-03-14T14:01:18.108Z,51.95
2023-03-14T14:03:52.075Z,51.87
2023-03-14T14:06:24.592Z,51.84
2023-03-14T14:08:51.417Z,52.21
2023-03-14T14:11:44.939Z,56.21
2023-03-14T14:14:28.250Z,55.67
2023-03-14T14:16:55.925Z,53.75
2023-03-14T14:19:26.152Z,53.18
2023-03-14T14:21:53.089Z,52.38
2023-03-14T14:24:23.585Z,52.13
2023-03-14T14:27:01.275Z,51.97
2023-03-14T14:29:33.528Z,53.00
2023-03-14T14:32:09.370Z,53.25
2023-03-14T14:34:52.616Z,52.81
2023-03-14T14:37:27.578Z,52.07
2023-03-14T14:39:58.490Z,50.86
2023-03-14T14:42:32.516Z,52.15
2023-03-14T14:44:59.884Z,51.01
2023-03-14T14:47:28.846Z,51.68
2023-03-14T14:49:59.586Z,50.82
2023-03-14T14:52:42.101Z,51.51
2023-03-14T14:55:21.999Z,52.70
2023-03-14T14:57:54.560Z,51.78
2023-03-14T15:00:24.080Z,51.06
2023-03-14T15:02:55.292Z,50.52
2023-03-14T15:05:28.056Z,49.54
2023-03-14T15:07:54.786Z,49.55
2023-03-14T15:10:24.000Z,51.12
2023-03-14T15:12:50.671Z,52.14
2023-03-14T15:15:18.519Z,51.37
2023-03-14T15:17:45.457Z,50.94
2023-03-14T15:20:14.831Z,50.40
2023-03-14T15:22:41.836Z,50.41
2023-03-14T15:25:12.970Z,51.03
2023-03-14T15:27:45.176Z,52.41
2023-03-14T15:30:16.564Z,51.46
2023-03-14T15:32:43.070Z,50.88
2023-03-14T15:35:10.475Z,50.80
2023-03-14T15:37:36.959Z,51.30
2023-03-14T15:40:12.715Z,50.22
2023-03-14T15:42:39.307Z,52.69
2023-03-14T15:45:06.414Z,51.78
2023-03-14T15:47:33.199Z,52.83
2023-03-14T15:49:59.838Z,51.50
2023-03-14T15:52:26.317Z,51.77
2023-03-14T15:54:52.780Z,51.21
2023-03-14T15:57:19.215Z,51.93
2023-03-14T15:59:45.758Z,52.85
2023-03-14T16:02:12.450Z,51.91
2023-03-14T16:04:38.859Z,52.63
2023-03-14T16:07:05.306Z,52.51
2023-03-14T16:09:32.170Z,52.11
2023-03-14T16:11:58.863Z,52.58
2023-03-14T16:14:25.362Z,54.21
2023-03-14T16:16:53.101Z,52.63
2023-03-14T16:19:19.527Z,54.14
2023-03-14T16:21:46.283Z,54.45
2023-03-14T16:24:12.686Z,52.84
2023-03-14T16:26:39.122Z,53.98
2023-03-14T16:29:05.655Z,55.67
2023-03-14T16:31:32.128Z,52.92
2023-03-14T16:34:03.516Z,53.62
2023-03-14T16:36:30.003Z,54.82
2023-03-14T16:38:56.510Z,54.55
2023-03-14T16:41:23.255Z,57.80
2023-03-14T16:43:52.273Z,57.04
2023-03-14T16:46:19.831Z,57.00
2023-03-14T16:48:46.470Z,57.40
2023-03-14T16:51:14.202Z,55.99
2023-03-14T16:53:40.857Z,56.81
2023-03-14T16:56:08.313Z,57.83
2023-03-14T16:58:35.447Z,55.45
2023-03-14T17:01:10.130Z,56.30
2023-03-14T17:03:39.115Z,55.90
2023-03-14T17:06:05.896Z,56.79
2023-03-14T17:08:32.377Z,56.38
2023-03-14T17:10:59.039Z,55.01
2023-03-14T17:13:25.911Z,54.84
2023-03-14T17:15:56.729Z,53.65
2023-03-14T17:18:24.538Z,55.25
2023-03-14T17:20:51.965Z,54.39
2023-03-14T17:23:18.791Z,54.25
2023-03-14T17:25:50.301Z,56.42
2023-03-14T17:28:17.614Z,54.77
2023-03-14T17:30:44.629Z,55.89
2023-03-14T17:33:11.631Z,57.20
2023-03-14T17:35:38.550Z,55.96
2023-03-14T17:38:05.342Z,55.18
2023-03-14T17:40:32.433Z,56.46
2023-03-14T17:42:58.826Z,56.03
2023-03-14T17:45:25.272Z,56.25
2023-03-14T17:47:51.807Z,56.38
2023-03-14T17:50:18.420Z,57.09
2023-03-14T17:52:44.872Z,56.35
2023-03-14T17:55:12.069Z,57.39
2023-03-14T17:57:40.238Z,57.20
2023-03-14T18:00:11.221Z,58.73
2023-03-14T18:02:37.762Z,56.94
2023-03-14T18:05:04.589Z,57.79
2023-03-14T18:07:34.887Z,57.12
2023-03-14T18:10:02.024Z,56.23
2023-03-14T18:12:28.895Z,57.63
2023-03-14T18:14:55.361Z,57.24
2023-03-14T18:17:21.824Z,57.03
2023-03-14T18:19:48.410Z,57.83
2023-03-14T18:22:15.964Z,57.35
2023-03-14T18:24:42.481Z,60.29
2023-03-14T18:27:09.103Z,59.92
2023-03-14T18:29:36.816Z,58.56
2023-03-14T18:32:03.283Z,59.25
2023-03-14T18:34:29.813Z,58.05
2023-03-14T18:36:56.204Z,59.34
2023-03-14T18:39:22.650Z,58.32
2023-03-14T18:41:49.032Z,58.74
2023-03-14T18:44:15.534Z,58.82
2023-03-14T18:46:42.499Z,58.90
2023-03-14T18:49:10.776Z,58.89
2023-03-14T18:51:37.183Z,58.53
2023-03-14T18:54:09.831Z,59.35
2023-03-14T18:56:39.153Z,58.39
2023-03-14T18:59:05.858Z,58.32
2023-03-14T19:01:34.133Z,58.57
2023-03-14T19:04:01.411Z,58.33
2023-03-14T19:06:28.691Z,58.73
2023-03-14T19:08:55.165Z,59.47
2023-03-14T19:11:21.667Z,58.62
2023-03-14T19:13:48.206Z,62.54
2023-03-14T19:16:15.773Z,59.90
2023-03-14T19:18:42.663Z,59.47
2023-03-14T19:21:12.371Z,63.65
2023-03-14T19:23:42.371Z,62.84
2023-03-14T19:26:09.885Z,61.88
2023-03-14T19:28:36.763Z,60.59
2023-03-14T19:31:04.843Z,61.14
2023-03-14T19:33:31.888Z,61.25
2023-03-14T19:35:58.739Z,60.56
2023-03-14T19:38:25.209Z,64.84
2023-03-14T19:40:57.736Z,63.54
2023-03-14T19:43:24.556Z,63.51
2023-03-14T19:45:51.108Z,65.88
2023-03-14T19:48:18.294Z,66.19
2023-03-14T19:50:44.819Z,65.47
2023-03-14T19:53:11.413Z,67.02
2023-03-14T19:55:38.162Z,64.86
2023-03-14T19:58:05.324Z,68.70
2023-03-14T20:00:32.017Z,67.88
2023-03-14T20:02:58.818Z,68.21
2023-03-14T20:05:25.330Z,66.60
2023-03-14T20:07:51.952Z,65.64
2023-03-14T20:10:22.687Z,64.70
2023-03-14T20:12:50.992Z,64.54
2023-03-14T20:15:19.645Z,63.76
2023-03-14T20:17:47.061Z,65.75
2023-03-14T20:20:13.815Z,64.96
2023-03-14T20:22:40.787Z,68.62
2023-03-14T20:25:12.937Z,68.61
2023-03-14T20:27:41.350Z,69.44
2023-03-14T20:30:12.697Z,70.23
2023-03-14T20:32:40.869Z,68.65
2023-03-14T20:35:09.568Z,67.47
2023-03-14T20:37:35.931Z,67.00
2023-03-14T20:40:02.587Z,67.84
2023-03-14T20:42:29.013Z,67.47
2023-03-14T20:44:55.499Z,66.18
2023-03-14T20:47:21.916Z,64.61
2023-03-14T20:49:48.406Z,65.15
2023-03-14T20:52:15.458Z,64.04
2023-03-14T20:54:41.834Z,64.70
2023-03-14T20:57:08.731Z,64.58
2023-03-14T20:59:35.210Z,65.36
2023-03-14T21:02:01.848Z,66.12
2023-03-14T21:04:28.525Z,65.83
2023-03-14T21:06:55.110Z,66.85
2023-03-14T21:09:27.140Z,66.78
2023-03-14T21:11:53.779Z,67.83
2023-03-14T21:14:22.367Z,68.02
2023-03-14T21:16:50.034Z,69.10
2023-03-14T21:19:16.787Z,69.29
2023-03-14T21:21:43.177Z,70.25
2023-03-14T21:24:09.559Z,70.96
2023-03-14T21:26:36.012Z,70.77
2023-03-14T21:29:03.074Z,71.77
2023-03-14T21:31:30.809Z,72.76
2023-03-14T21:33:57.668Z,72.46
2023-03-14T21:36:24.117Z,73.68
2023-03-14T21:38:50.668Z,72.61
2023-03-14T21:41:17.094Z,73.47
2023-03-14T21:43:45.681Z,73.75
2023-03-14T21:46:12.943Z,73.87
2023-03-14T21:48:39.371Z,73.89
2023-03-14T21:51:06.811Z,74.50
2023-03-14T21:53:34.803Z,74.42
2023-03-14T21:56:01.864Z,73.55
2023-03-14T21:58:28.411Z,74.19
2023-03-14T22:01:01.631Z,74.40
2023-03-14T22:03:28.767Z,73.89
2023-03-14T22:05:55.177Z,73.74
2023-03-14T22:08:22.595Z,74.79
2023-03-14T22:10:53.607Z,74.82
2023-03-14T22:13:22.727Z,74.93
2023-03-14T22:15:50.047Z,74.57
2023-03-14T22:18:18.000Z,74.31
2023-03-14T22:20:45.208Z,74.13
2023-03-14T22:23:12.684Z,74.45
2023-03-14T22:25:43.894Z,73.80
2023-03-14T22:28:10.831Z,74.31
2023-03-14T22:30:37.375Z,76.34
2023-03-14T22:33:04.196Z,75.90
2023-03-14T22:35:30.568Z,78.38
2023-03-14T22:37:57.272Z,78.12
2023-03-14T22:40:23.860Z,81.60
2023-03-14T22:42:53.655Z,80.15
2023-03-14T22:45:20.804Z,83.67
2023-03-14T22:47:47.348Z,85.20
2023-03-14T22:50:13.846Z,85.24
2023-03-14T22:52:42.739Z,86.57
2023-03-14T22:55:09.754Z,87.08
2023-03-14T22:57:37.187Z,87.58
2023-03-14T23:00:08.069Z,88.21
2023-03-14T23:02:34.441Z,88.64
2023-03-14T23:05:00.899Z,88.95
2023-03-14T23:07:27.291Z,90.31
2023-03-14T23:09:53.667Z,90.15
2023-03-14T23:12:21.587Z,90.64
2023-03-14T23:14:48.243Z,89.08
2023-03-14T23:17:14.690Z,89.33
2023-03-14T23:19:41.123Z,90.62
2023-03-14T23:22:09.646Z,90.38
2023-03-14T23:24:36.323Z,91.37
2023-03-14T23:27:03.327Z,91.89
2023-03-14T23:29:29.708Z,90.11
2023-03-14T23:31:56.125Z,90.97
2023-03-14T23:34:25.169Z,91.32
2023-03-14T23:36:51.702Z,91.26
2023-03-14T23:39:18.127Z,91.10
2023-03-14T23:41:44.799Z,90.58
2023-03-14T23:44:13.206Z,90.83
2023-03-14T23:46:40.011Z,92.13
2023-03-14T23:49:06.516Z,91.65
2023-03-14T23:51:32.906Z,92.14
2023-03-14T23:53:59.401Z,92.28
2023-03-14T23:56:25.819Z,92.83
2023-03-14T23:58:52.219Z,92.48
